createdAt,value
2023-08-02T00:00:57.195Z,16.22
2023-08-02T00:03:39.233Z,16.16
2023-08-02T00:05:51.496Z,16.13
2023-08-02T00:08:01.239Z,16.14
2023-08-02T00:10:21.681Z,16.13
2023-08-02T00:12:33.095Z,16.06
2023-08-02T00:14:45.342Z,16.05
2023-08-02T00:16:59.970Z,16.10
2023-08-02T00:19:26.835Z,16.08
2023-08-02T00:21:36.087Z,16.12
2023-08-02T00:23:57.305Z,16.12
2023-08-02T00:26:07.974Z,16.07
2023-08-02T00:28:39.650Z,16.15
2023-08-02T00:30:53.681Z,16.13
2023-08-02T00:33:32.694Z,16.19
2023-08-02T00:35:55.610Z,16.21
2023-08-02T00:38:13.171Z,16.20
2023-08-02T00:40:42.597Z,16.21
2023-08-02T00:43:12.310Z,16.26
2023-08-02T00:45:35.366Z,16.29
2023-08-02T00:48:00.874Z,16.24
2023-08-02T00:50:17.253Z,16.32
2023-08-02T00:52:36.428Z,16.34
2023-08-02T00:54:46.812Z,16.30
2023-08-02T00:56:59.483Z,16.31
2023-08-02T00:59:18.537Z,16.28
2023-08-02T01:01:39.566Z,16.30
2023-08-02T01:04:27.068Z,16.26
2023-08-02T01:06:50.855Z,16.34
2023-08-02T01:09:18.441Z,16.28
2023-08-02T01:11:39.414Z,16.25
2023-08-02T01:14:03.738Z,16.23
2023-08-02T01:16:37.634Z,16.17
2023-08-02T01:19:13.347Z,16.18
2023-08-02T01:21:20.853Z,16.14
2023-08-02T01:23:25.950Z,16.14
2023-08-02T01:25:35.989Z,16.14
2023-08-02T01:27:55.771Z,16.11
2023-08-02T01:30:03.998Z,16.19
2023-08-02T01:32:10.853Z,16.23
2023-08-02T01:34:16.396Z,16.18
2023-08-02T01:36:24.496Z,16.16
2023-08-02T01:38:29.767Z,16.10
2023-08-02T01:40:34.762Z,16.10
2023-08-02T01:42:40.332Z,16.13
2023-08-02T01:44:45.450Z,16.09
2023-08-02T01:46:50.305Z,16.04
2023-08-02T01:48:55.161Z,16.01
2023-08-02T01:51:00.242Z,16.03
2023-08-02T01:53:13.159Z,15.93
2023-08-02T01:55:18.183Z,15.95
2023-08-02T01:57:23.119Z,15.90
2023-08-02T01:59:28.015Z,15.86
2023-08-02T02:01:32.890Z,15.89
2023-08-02T02:03:38.035Z,15.86
2023-08-02T02:05:54.443Z,15.82
2023-08-02T02:08:01.575Z,15.82
2023-08-02T02:10:10.713Z,15.78
2023-08-02T02:12:15.569Z,15.71
2023-08-02T02:14:20.414Z,15.72
2023-08-02T02:16:22.781Z,15.68
2023-08-02T02:18:30.029Z,15.68
2023-08-02T02:20:34.856Z,15.65
2023-08-02T02:22:41.009Z,15.67
2023-08-02T02:24:45.877Z,15.70
2023-08-02T02:26:53.224Z,15.62
2023-08-02T02:28:58.141Z,15.58
2023-08-02T02:31:04.245Z,15.58
2023-08-02T02:33:09.218Z,15.57
2023-08-02T02:35:15.362Z,15.61
2023-08-02T02:37:20.162Z,15.54
2023-08-02T02:39:24.959Z,15.55
2023-08-02T02:41:30.056Z,15.51
2023-08-02T02:43:40.223Z,15.52
2023-08-02T02:45:44.989Z,15.57
2023-08-02T02:47:50.008Z,15.55
2023-08-02T02:49:56.742Z,15.51
2023-08-02T02:52:07.818Z,15.48
2023-08-02T02:54:12.782Z,15.57
2023-08-02T02:56:17.702Z,15.57
2023-08-02T02:58:22.576Z,15.55
2023-08-02T03:00:32.449Z,15.57
2023-08-02T03:02:37.736Z,15.63
2023-08-02T03:04:42.949Z,15.56
2023-08-02T03:06:48.054Z,15.61
2023-08-02T03:08:52.933Z,15.57
2023-08-02T03:10:57.845Z,15.58
2023-08-02T03:13:02.702Z,15.62
2023-08-02T03:15:08.949Z,15.60
2023-08-02T03:17:16.328Z,15.71
2023-08-02T03:19:21.163Z,15.72
2023-08-02T03:21:31.928Z,15.66
2023-08-02T03:23:38.325Z,15.67
2023-08-02T03:25:43.637Z,15.60
2023-08-02T03:27:48.388Z,15.57
2023-08-02T03:29:53.692Z,15.58
2023-08-02T03:32:01.644Z,15.53
2023-08-02T03:34:09.104Z,15.55
2023-08-02T03:36:13.930Z,15.59
2023-08-02T03:38:18.879Z,15.61
2023-08-02T03:40:24.913Z,15.69
2023-08-02T03:42:29.943Z,15.66
2023-08-02T03:44:35.057Z,15.57
2023-08-02T03:46:40.272Z,15.54
2023-08-02T03:48:48.502Z,15.55
2023-08-02T03:50:57.371Z,15.50
2023-08-02T03:53:02.667Z,15.58
2023-08-02T03:55:10.582Z,15.62
2023-08-02T03:57:15.511Z,15.69
2023-08-02T03:59:20.468Z,15.58
2023-08-02T04:01:25.716Z,15.60
2023-08-02T04:03:28.270Z,15.71
2023-08-02T04:05:36.502Z,15.58
2023-08-02T04:07:48.070Z,15.64
2023-08-02T04:09:58.416Z,15.57
2023-08-02T04:12:03.541Z,15.56
2023-08-02T04:14:08.382Z,15.56
2023-08-02T04:16:16.172Z,15.68
2023-08-02T04:18:21.113Z,15.54
2023-08-02T04:20:25.931Z,15.49
2023-08-02T04:22:33.082Z,15.46
2023-08-02T04:24:40.582Z,15.48
2023-08-02T04:26:45.846Z,15.54
2023-08-02T04:28:51.464Z,15.48
2023-08-02T04:30:54.351Z,15.49
2023-08-02T04:32:59.484Z,15.45
2023-08-02T04:35:05.102Z,15.51
2023-08-02T04:37:12.718Z,15.40
2023-08-02T04:39:17.570Z,15.43
2023-08-02T04:41:25.093Z,15.50
2023-08-02T04:43:30.143Z,15.52
2023-08-02T04:45:35.812Z,15.44
2023-08-02T04:47:43.169Z,15.52
2023-08-02T04:49:48.233Z,15.53
2023-08-02T04:51:53.073Z,15.46
2023-08-02T04:53:58.029Z,15.32
2023-08-02T04:56:02.958Z,15.37
2023-08-02T04:58:07.937Z,15.39
2023-08-02T05:00:13.633Z,15.38
2023-08-02T05:02:19.472Z,15.40
2023-08-02T05:04:24.704Z,15.44
2023-08-02T05:06:33.929Z,15.42
2023-08-02T05:08:40.819Z,15.47
2023-08-02T05:10:45.794Z,15.31
2023-08-02T05:12:50.578Z,15.40
2023-08-02T05:15:01.257Z,15.35
2023-08-02T05:17:09.173Z,15.37
2023-08-02T05:19:14.051Z,15.35
2023-08-02T05:21:23.173Z,15.39
2023-08-02T05:23:29.074Z,15.38
2023-08-02T05:25:37.066Z,15.38
2023-08-02T05:27:42.186Z,15.41
2023-08-02T05:29:47.228Z,15.43
2023-08-02T05:31:54.734Z,15.44
2023-08-02T05:33:59.623Z,15.36
2023-08-02T05:36:05.067Z,15.49
2023-08-02T05:38:12.750Z,15.50
2023-08-02T05:40:20.654Z,15.49
2023-08-02T05:42:25.963Z,15.41
2023-08-02T05:44:30.791Z,15.43
2023-08-02T05:46:36.001Z,15.34
2023-08-02T05:48:45.758Z,15.44
2023-08-02T05:50:50.788Z,15.39
2023-08-02T05:52:55.977Z,15.42
2023-08-02T05:55:00.807Z,15.43
2023-08-02T05:57:05.761Z,15.37
2023-08-02T05:59:10.683Z,15.39
2023-08-02T06:01:15.942Z,15.37
2023-08-02T06:03:20.906Z,15.31
2023-08-02T06:05:31.780Z,15.36
2023-08-02T06:07:36.965Z,15.41
2023-08-02T06:09:43.093Z,15.37
2023-08-02T06:11:47.834Z,15.30
2023-08-02T06:13:52.742Z,15.48
2023-08-02T06:15:57.821Z,15.39
2023-08-02T06:18:02.911Z,15.44
2023-08-02T06:20:11.458Z,15.46
2023-08-02T06:22:18.873Z,15.45
2023-08-02T06:24:29.344Z,15.39
2023-08-02T06:26:34.615Z,15.42
2023-08-02T06:28:39.435Z,15.36
2023-08-02T06:30:44.438Z,15.35
2023-08-02T06:32:49.428Z,15.41
2023-08-02T06:34:54.463Z,15.38
2023-08-02T06:37:04.912Z,15.52
2023-08-02T06:39:15.455Z,15.55
2023-08-02T06:41:20.294Z,15.59
2023-08-02T06:43:25.219Z,15.57
2023-08-02T06:45:30.109Z,15.63
2023-08-02T06:47:35.382Z,15.66
2023-08-02T06:49:40.371Z,15.67
2023-08-02T06:51:42.822Z,15.67
2023-08-02T06:53:47.867Z,15.72
2023-08-02T06:55:55.236Z,15.70
2023-08-02T06:58:00.200Z,15.69
2023-08-02T07:00:08.767Z,15.68
2023-08-02T07:02:16.260Z,15.73
2023-08-02T07:04:21.276Z,15.74
2023-08-02T07:06:26.554Z,15.73
2023-08-02T07:08:32.170Z,15.77
2023-08-02T07:10:37.114Z,15.85
2023-08-02T07:12:41.988Z,15.85
2023-08-02T07:14:47.199Z,15.89
2023-08-02T07:16:52.047Z,15.92
2023-08-02T07:18:56.970Z,15.91
2023-08-02T07:21:07.787Z,15.92
2023-08-02T07:23:13.237Z,15.98
2023-08-02T07:25:18.173Z,15.94
2023-08-02T07:27:24.839Z,16.01
2023-08-02T07:29:35.146Z,16.01
2023-08-02T07:31:40.588Z,16.01
2023-08-02T07:33:46.821Z,15.95
2023-08-02T07:35:51.625Z,15.95
2023-08-02T07:37:56.412Z,15.98
2023-08-02T07:40:01.946Z,15.94
2023-08-02T07:42:07.141Z,15.96
2023-08-02T07:44:11.957Z,16.01
2023-08-02T07:46:23.865Z,16.05
2023-08-02T07:48:29.326Z,15.90
2023-08-02T07:50:38.034Z,16.04
2023-08-02T07:52:44.369Z,16.05
2023-08-02T07:54:55.421Z,15.98
2023-08-02T07:57:01.413Z,15.95
2023-08-02T07:59:06.257Z,16.01
2023-08-02T08:01:12.102Z,16.07
2023-08-02T08:03:19.771Z,16.05
2023-08-02T08:05:26.772Z,16.10
2023-08-02T08:07:32.405Z,16.16
2023-08-02T08:09:37.314Z,16.23
2023-08-02T08:11:42.601Z,16.22
2023-08-02T08:13:47.742Z,16.27
2023-08-02T08:15:52.508Z,16.23
2023-08-02T08:17:57.454Z,16.33
2023-08-02T08:20:08.228Z,16.45
2023-08-02T08:22:13.218Z,16.59
2023-08-02T08:24:18.034Z,16.71
2023-08-02T08:26:24.139Z,16.87
2023-08-02T08:28:29.634Z,17.07
2023-08-02T08:30:35.017Z,17.23
2023-08-02T08:32:40.017Z,17.26
2023-08-02T08:34:44.816Z,17.40
2023-08-02T08:36:52.314Z,17.37
2023-08-02T08:38:59.064Z,17.72
2023-08-02T08:41:03.935Z,17.89
2023-08-02T08:43:09.238Z,17.93
2023-08-02T08:45:14.967Z,18.04
2023-08-02T08:47:21.054Z,18.01
2023-08-02T08:49:25.922Z,17.76
2023-08-02T08:51:32.791Z,17.76
2023-08-02T08:53:44.841Z,17.72
2023-08-02T08:55:53.314Z,17.66
2023-08-02T08:58:00.827Z,17.67
2023-08-02T09:00:12.249Z,17.72
2023-08-02T09:02:18.218Z,17.76
2023-08-02T09:04:23.656Z,17.86
2023-08-02T09:06:30.375Z,18.12
2023-08-02T09:08:46.590Z,18.35
2023-08-02T09:10:48.836Z,18.56
2023-08-02T09:12:53.682Z,18.72
2023-08-02T09:15:06.480Z,18.68
2023-08-02T09:17:11.286Z,18.74
2023-08-02T09:19:26.570Z,18.85
2023-08-02T09:21:31.903Z,19.00
2023-08-02T09:23:34.713Z,19.08
2023-08-02T09:25:42.119Z,19.29
2023-08-02T09:27:50.614Z,19.33
2023-08-02T09:29:56.699Z,19.38
2023-08-02T09:32:01.949Z,19.50
2023-08-02T09:34:09.492Z,19.56
2023-08-02T09:36:14.438Z,19.68
2023-08-02T09:38:19.700Z,19.67
2023-08-02T09:40:49.411Z,19.55
2023-08-02T09:43:05.459Z,19.50
2023-08-02T09:45:12.112Z,19.47
2023-08-02T09:47:16.957Z,19.39
2023-08-02T09:49:23.824Z,19.22
2023-08-02T09:51:42.894Z,18.97
2023-08-02T09:53:57.418Z,19.01
2023-08-02T09:56:06.501Z,19.08
2023-08-02T09:58:17.230Z,19.19
2023-08-02T10:00:22.210Z,19.63
2023-08-02T10:02:28.704Z,19.56
2023-08-02T10:04:35.065Z,19.64
2023-08-02T10:06:45.626Z,19.57
2023-08-02T10:08:52.596Z,19.36
2023-08-02T10:10:59.428Z,19.30
2023-08-02T10:13:12.531Z,19.64
2023-08-02T10:15:21.065Z,20.17
2023-08-02T10:17:28.306Z,20.24
2023-08-02T10:19:34.730Z,20.85
2023-08-02T10:21:41.862Z,20.69
2023-08-02T10:23:49.217Z,20.77
2023-08-02T10:26:00.166Z,21.00
2023-08-02T10:28:06.761Z,21.00
2023-08-02T10:30:14.291Z,21.35
2023-08-02T10:32:23.359Z,20.88
2023-08-02T10:34:50.360Z,20.34
2023-08-02T10:36:56.691Z,20.12
2023-08-02T10:39:04.512Z,19.93
2023-08-02T10:41:12.783Z,20.39
2023-08-02T10:43:17.551Z,20.81
2023-08-02T10:45:22.627Z,20.93
2023-08-02T10:47:28.559Z,21.05
2023-08-02T10:49:42.830Z,21.32
2023-08-02T10:51:47.772Z,21.52
2023-08-02T10:54:13.774Z,21.59
2023-08-02T10:56:18.955Z,21.74
2023-08-02T10:58:21.256Z,21.79
2023-08-02T11:00:33.153Z,21.75
2023-08-02T11:02:52.172Z,21.94
2023-08-02T11:04:57.102Z,22.53
2023-08-02T11:07:14.645Z,22.42
2023-08-02T11:09:19.421Z,22.09
2023-08-02T11:11:34.696Z,21.86
2023-08-02T11:13:43.439Z,21.75
2023-08-02T11:15:49.546Z,21.02
2023-08-02T11:18:00.918Z,21.37
2023-08-02T11:20:07.403Z,21.69
2023-08-02T11:22:12.462Z,21.58
2023-08-02T11:24:17.370Z,21.82
2023-08-02T11:26:20.371Z,21.97
2023-08-02T11:28:25.857Z,21.97
2023-08-02T11:30:31.020Z,22.17
2023-08-02T11:32:38.199Z,22.07
2023-08-02T11:34:46.091Z,21.82
2023-08-02T11:36:52.925Z,21.95
2023-08-02T11:38:59.677Z,21.76
2023-08-02T11:41:04.932Z,22.06
2023-08-02T11:43:11.327Z,22.22
2023-08-02T11:47:26.801Z,21.77
2023-08-02T11:49:34.637Z,21.80
2023-08-02T11:51:46.118Z,22.33
2023-08-02T11:53:56.260Z,22.14
2023-08-02T11:56:02.102Z,22.24
2023-08-02T11:58:10.677Z,22.15
2023-08-02T12:00:17.102Z,22.77
2023-08-02T12:02:24.172Z,22.98
2023-08-02T12:04:29.390Z,23.01
2023-08-02T12:06:53.365Z,22.69
2023-08-02T12:09:03.453Z,23.07
2023-08-02T12:11:16.727Z,23.31
2023-08-02T12:13:22.123Z,23.15
2023-08-02T12:15:26.996Z,23.27
2023-08-02T12:17:34.016Z,22.90
2023-08-02T12:19:44.709Z,23.28
2023-08-02T12:22:01.681Z,23.00
2023-08-02T12:24:16.468Z,23.08
2023-08-02T12:26:36.047Z,23.07
2023-08-02T12:28:49.026Z,23.06
2023-08-02T12:31:05.050Z,22.70
2023-08-02T12:33:10.502Z,22.93
2023-08-02T12:35:16.087Z,22.98
2023-08-02T12:37:24.070Z,23.62
2023-08-02T12:39:29.095Z,23.24
2023-08-02T12:41:34.156Z,23.09
2023-08-02T12:43:39.237Z,23.16
2023-08-02T12:45:44.085Z,23.14
2023-08-02T12:47:49.229Z,23.28
2023-08-02T12:49:55.202Z,22.82
2023-08-02T12:52:00.343Z,22.43
2023-08-02T12:54:08.084Z,22.55
2023-08-02T12:56:13.952Z,22.42
2023-08-02T12:58:19.058Z,22.23
2023-08-02T13:00:23.916Z,22.34
2023-08-02T13:02:31.066Z,22.63
2023-08-02T13:04:36.520Z,22.77
2023-08-02T13:06:51.058Z,22.73
2023-08-02T13:09:01.174Z,22.64
2023-08-02T13:11:10.662Z,22.69
2023-08-02T13:13:15.495Z,22.58
2023-08-02T13:15:20.269Z,22.55
2023-08-02T13:17:25.254Z,22.97
2023-08-02T13:19:30.036Z,22.92
2023-08-02T13:21:34.945Z,23.25
2023-08-02T13:23:40.181Z,23.29
2023-08-02T13:25:45.047Z,22.83
2023-08-02T13:27:52.961Z,22.86
2023-08-02T13:29:55.871Z,23.04
2023-08-02T13:32:02.657Z,22.78
2023-08-02T13:34:16.876Z,23.04
2023-08-02T13:36:21.703Z,23.01
2023-08-02T13:38:26.829Z,23.04
2023-08-02T13:40:34.467Z,22.99
2023-08-02T13:42:37.031Z,22.94
2023-08-02T13:44:48.998Z,23.45
2023-08-02T13:46:54.779Z,23.23
2023-08-02T13:49:00.185Z,23.18
2023-08-02T13:51:05.212Z,23.34
2023-08-02T13:53:13.652Z,23.40
2023-08-02T13:55:18.489Z,23.18
2023-08-02T13:57:21.038Z,22.78
2023-08-02T13:59:25.866Z,22.83
2023-08-02T14:01:33.869Z,22.46
2023-08-02T14:03:43.070Z,22.22
2023-08-02T14:05:54.725Z,22.42
2023-08-02T14:08:24.354Z,22.35
2023-08-02T14:10:55.621Z,22.16
2023-08-02T14:13:12.616Z,22.17
2023-08-02T14:15:26.576Z,22.25
2023-08-02T14:17:36.553Z,22.26
2023-08-02T14:19:42.431Z,22.08
2023-08-02T14:21:53.343Z,21.92
2023-08-02T14:24:19.612Z,21.97
2023-08-02T14:26:33.059Z,21.86
2023-08-02T14:31:14.038Z,21.98
2023-08-02T14:35:33.060Z,21.59
2023-08-02T14:37:59.740Z,21.67
2023-08-02T14:42:59.402Z,21.44
2023-08-02T14:45:16.915Z,21.35
2023-08-02T14:47:28.429Z,21.64
2023-08-02T14:49:40.269Z,21.28
2023-08-02T14:51:45.655Z,21.25
2023-08-02T14:54:03.842Z,21.14
2023-08-02T14:56:20.160Z,20.69
2023-08-02T14:58:34.531Z,20.59
2023-08-02T15:00:42.056Z,20.15
2023-08-02T15:03:04.710Z,19.92
2023-08-02T15:05:20.974Z,19.65
2023-08-02T15:07:32.791Z,19.78
2023-08-02T15:09:37.754Z,19.74
2023-08-02T15:11:42.862Z,19.73
2023-08-02T15:13:47.880Z,19.69
2023-08-02T15:15:53.050Z,19.64
2023-08-02T15:17:58.087Z,19.55
2023-08-02T15:20:03.623Z,19.53
2023-08-02T15:22:15.585Z,19.83
2023-08-02T15:24:20.459Z,19.86
2023-08-02T15:26:27.412Z,19.81
2023-08-02T15:28:35.152Z,20.00
2023-08-02T15:30:40.573Z,20.08
2023-08-02T15:32:45.513Z,20.20
2023-08-02T15:34:50.273Z,20.27
2023-08-02T15:36:56.156Z,20.47
2023-08-02T15:39:04.766Z,20.64
2023-08-02T15:41:07.010Z,20.30
2023-08-02T15:43:12.188Z,20.37
2023-08-02T15:45:17.035Z,20.28
2023-08-02T15:47:22.392Z,20.23
2023-08-02T15:49:27.183Z,20.16
2023-08-02T15:51:33.134Z,20.07
2023-08-02T15:53:38.082Z,20.28
2023-08-02T15:55:45.880Z,20.37
2023-08-02T15:57:51.210Z,20.28
2023-08-02T15:59:56.025Z,20.41
2023-08-02T16:02:01.112Z,20.28
2023-08-02T16:04:07.174Z,20.16
2023-08-02T16:06:12.871Z,20.04
2023-08-02T16:08:18.449Z,20.11
2023-08-02T16:10:23.249Z,20.15
2023-08-02T16:12:31.135Z,19.94
2023-08-02T16:14:36.082Z,20.06
2023-08-02T16:16:41.251Z,20.01
2023-08-02T16:18:46.567Z,20.04
2023-08-02T16:20:52.217Z,19.97
2023-08-02T16:22:57.112Z,19.74
2023-08-02T16:25:05.660Z,19.81
2023-08-02T16:27:10.627Z,20.07
2023-08-02T16:29:19.300Z,20.16
2023-08-02T16:31:24.252Z,20.23
2023-08-02T16:33:29.354Z,20.26
2023-08-02T16:35:34.616Z,20.03
2023-08-02T16:37:39.604Z,19.97
2023-08-02T16:39:44.421Z,19.88
2023-08-02T16:41:49.361Z,19.81
2023-08-02T16:43:54.204Z,19.82
2023-08-02T16:46:01.804Z,19.68
2023-08-02T16:48:05.430Z,19.69
2023-08-02T16:50:12.258Z,19.34
2023-08-02T16:52:21.533Z,19.35
2023-08-02T16:54:31.014Z,18.71
2023-08-02T16:56:35.937Z,18.76
2023-08-02T16:58:40.903Z,18.45
2023-08-02T17:00:45.866Z,18.49
2023-08-02T17:02:53.701Z,18.28
2023-08-02T17:04:59.680Z,18.34
2023-08-02T17:07:03.564Z,18.48
2023-08-02T17:09:08.673Z,18.30
2023-08-02T17:11:11.271Z,18.30
2023-08-02T17:13:16.101Z,18.11
2023-08-02T17:15:21.523Z,18.10
2023-08-02T17:17:26.873Z,18.09
2023-08-02T17:19:34.268Z,18.07
2023-08-02T17:21:52.101Z,18.21
2023-08-02T17:23:56.925Z,18.13
2023-08-02T17:26:08.833Z,18.10
2023-08-02T17:28:11.085Z,18.21
2023-08-02T17:30:16.374Z,18.25
2023-08-02T17:32:21.213Z,18.33
2023-08-02T17:34:28.607Z,18.31
2023-08-02T17:36:37.078Z,18.41
2023-08-02T17:38:41.751Z,18.21
2023-08-02T17:40:46.910Z,18.14
2023-08-02T17:42:51.815Z,18.01
2023-08-02T17:44:57.358Z,18.13
2023-08-02T17:47:05.339Z,18.04
2023-08-02T17:49:11.337Z,17.80
2023-08-02T17:51:18.300Z,17.83
2023-08-02T17:53:26.220Z,17.79
2023-08-02T17:55:31.010Z,17.52
2023-08-02T17:57:35.970Z,17.45
2023-08-02T17:59:40.970Z,17.43
2023-08-02T18:01:47.719Z,17.29
2023-08-02T18:03:56.413Z,17.28
2023-08-02T18:06:01.304Z,17.21
2023-08-02T18:08:06.421Z,17.10
2023-08-02T18:10:14.252Z,16.95
2023-08-02T18:12:19.136Z,16.99
2023-08-02T18:14:23.882Z,16.85
2023-08-02T18:16:29.299Z,16.77
2023-08-02T18:18:34.791Z,16.71
2023-08-02T18:20:40.802Z,16.64
2023-08-02T18:22:45.652Z,16.76
2023-08-02T18:24:52.600Z,16.67
2023-08-02T18:27:00.346Z,16.69
2023-08-02T18:29:05.355Z,16.60
2023-08-02T18:31:10.402Z,16.58
2023-08-02T18:33:16.620Z,16.62
2023-08-02T18:35:18.889Z,16.72
2023-08-02T18:37:26.011Z,16.61
2023-08-02T18:39:32.505Z,16.62
2023-08-02T18:41:38.341Z,16.61
2023-08-02T18:43:46.064Z,16.63
2023-08-02T18:45:53.679Z,16.71
2023-08-02T18:47:58.779Z,16.66
2023-08-02T18:50:01.698Z,16.60
2023-08-02T18:52:08.080Z,16.68
2023-08-02T18:54:14.323Z,16.55
2023-08-02T18:56:16.807Z,16.57
2023-08-02T18:58:22.191Z,16.70
2023-08-02T19:00:36.379Z,16.66
2023-08-02T19:02:38.960Z,16.58
2023-08-02T19:04:44.185Z,16.68
2023-08-02T19:06:49.014Z,16.67
2023-08-02T19:08:53.906Z,16.64
2023-08-02T19:10:59.615Z,16.71
2023-08-02T19:13:06.474Z,16.71
2023-08-02T19:15:29.640Z,16.79
2023-08-02T19:17:43.823Z,16.71
2023-08-02T19:19:48.837Z,16.70
2023-08-02T19:21:51.942Z,16.73
2023-08-02T19:23:56.845Z,16.76
2023-08-02T19:26:01.886Z,16.75
2023-08-02T19:28:07.013Z,16.75
2023-08-02T19:30:20.945Z,16.72
2023-08-02T19:32:38.498Z,16.71
2023-08-02T19:34:52.803Z,16.74
2023-08-02T19:37:01.528Z,16.77
2023-08-02T19:39:21.899Z,16.70
2023-08-02T19:42:23.248Z,16.63
2023-08-02T19:45:13.081Z,16.58
2023-08-02T19:47:34.002Z,16.62
2023-08-02T19:49:52.002Z,16.59
2023-08-02T19:52:43.653Z,16.56
2023-08-02T19:55:56.068Z,16.63
2023-08-02T19:59:08.590Z,16.58
2023-08-02T20:01:14.496Z,16.62
2023-08-02T20:03:19.310Z,16.67
2023-08-02T20:06:05.131Z,16.65
2023-08-02T20:08:16.566Z,16.65
2023-08-02T20:10:52.137Z,16.66
2023-08-02T20:12:57.012Z,16.67
2023-08-02T20:15:07.410Z,16.71
2023-08-02T20:17:14.075Z,16.67
2023-08-02T20:19:24.878Z,16.71
2023-08-02T20:21:29.866Z,16.74
2023-08-02T20:23:42.632Z,16.73
2023-08-02T20:25:56.703Z,16.75
2023-08-02T20:28:01.474Z,16.74
2023-08-02T20:30:16.424Z,16.73
2023-08-02T20:32:21.444Z,16.68
2023-08-02T20:34:27.207Z,16.63
2023-08-02T20:36:32.253Z,16.56
2023-08-02T20:38:37.719Z,16.51
2023-08-02T20:40:42.642Z,16.53
2023-08-02T20:42:47.472Z,16.53
2023-08-02T20:44:52.480Z,16.43
2023-08-02T20:46:57.911Z,16.42
2023-08-02T20:49:06.183Z,16.40
2023-08-02T20:51:11.673Z,16.37
2023-08-02T20:53:18.047Z,16.41
2023-08-02T20:55:25.687Z,16.35
2023-08-02T20:57:32.615Z,16.42
2023-08-02T20:59:40.625Z,16.42
2023-08-02T21:01:47.061Z,16.40
2023-08-02T21:03:49.473Z,16.46
2023-08-02T21:05:54.647Z,16.39
2023-08-02T21:08:00.386Z,16.40
2023-08-02T21:10:13.407Z,16.41
2023-08-02T21:12:21.100Z,16.38
2023-08-02T21:14:28.696Z,16.37
2023-08-02T21:16:34.102Z,16.29
2023-08-02T21:18:41.968Z,16.27
2023-08-02T21:20:47.894Z,16.19
2023-08-02T21:22:52.864Z,16.23
2023-08-02T21:24:57.757Z,16.17
2023-08-02T21:27:05.563Z,16.25
2023-08-02T21:29:16.499Z,16.17
2023-08-02T21:31:28.681Z,16.16
2023-08-02T21:33:38.094Z,16.11
2023-08-02T21:35:57.410Z,16.11
2023-08-02T21:38:05.528Z,16.10
2023-08-02T21:40:18.729Z,16.12
2023-08-02T21:42:26.362Z,16.13
2023-08-02T21:44:34.040Z,16.17
2023-08-02T21:46:56.105Z,16.09
2023-08-02T21:49:01.253Z,16.09
2023-08-02T21:51:06.827Z,16.12
2023-08-02T21:53:13.523Z,16.12
2023-08-02T21:55:24.353Z,16.15
2023-08-02T21:57:40.048Z,16.12
2023-08-02T21:59:47.754Z,16.14
2023-08-02T22:02:05.980Z,16.14
2023-08-02T22:04:20.320Z,16.13
2023-08-02T22:06:27.247Z,16.15
2023-08-02T22:08:42.637Z,16.12
2023-08-02T22:10:51.613Z,16.12
2023-08-02T22:13:08.365Z,16.15
2023-08-02T22:15:33.793Z,16.17
2023-08-02T22:17:41.245Z,16.11
2023-08-02T22:19:49.671Z,16.13
2023-08-02T22:21:54.508Z,16.21
2023-08-02T22:23:59.345Z,16.17
2023-08-02T22:26:01.635Z,16.18
2023-08-02T22:28:07.868Z,16.13
2023-08-02T22:30:15.584Z,16.13
2023-08-02T22:32:20.571Z,16.11
2023-08-02T22:34:28.453Z,16.18
2023-08-02T22:36:33.329Z,16.21
2023-08-02T22:38:49.183Z,16.20
2023-08-02T22:40:54.682Z,16.24
2023-08-02T22:42:59.521Z,16.22
2023-08-02T22:45:02.668Z,16.19
2023-08-02T22:47:10.627Z,16.20
2023-08-02T22:50:31.222Z,16.22
2023-08-02T22:51:40.461Z,16.15
2023-08-02T22:53:45.257Z,16.16
2023-08-02T22:55:50.172Z,16.15
2023-08-02T22:57:55.007Z,16.24
2023-08-02T23:00:00.704Z,16.24
2023-08-02T23:02:06.275Z,16.24
2023-08-02T23:04:13.965Z,16.22
2023-08-02T23:06:22.840Z,16.24
2023-08-02T23:08:30.068Z,16.26
2023-08-02T23:10:37.819Z,16.26
2023-08-02T23:12:45.295Z,16.35
2023-08-02T23:14:55.893Z,16.37
2023-08-02T23:17:02.962Z,16.31
2023-08-02T23:19:18.794Z,16.35
2023-08-02T23:21:23.791Z,16.37
2023-08-02T23:23:33.363Z,16.37
2023-08-02T23:25:38.802Z,16.40
2023-08-02T23:27:43.962Z,16.40
2023-08-02T23:29:48.820Z,16.44
2023-08-02T23:31:53.803Z,16.53
2023-08-02T23:34:05.260Z,16.48
2023-08-02T23:36:12.893Z,16.49
2023-08-02T23:38:15.217Z,16.49
2023-08-02T23:40:20.065Z,16.65
2023-08-02T23:42:24.965Z,16.54
2023-08-02T23:44:29.882Z,16.66
2023-08-02T23:46:35.310Z,16.63
2023-08-02T23:48:40.114Z,16.63
2023-08-02T23:50:44.814Z,16.62
2023-08-02T23:52:52.291Z,16.68
2023-08-02T23:54:57.159Z,16.71
2023-08-02T23:57:02.193Z,16.67
2023-08-02T23:59:04.924Z,16.72
